Stations météo

réclame
Mon MeteoGroup
Cardiff, Grande-Bretagne (3715): Température de l'air & dewpoint: 19.02.2018 09:00:00 - 25.02.2018 09:00:00 (GMT)Cardiff, Grande-Bretagne (3715): Vitesse du vent: 19.02.2018 09:00:00 - 25.02.2018 09:00:00 (GMT)Cardiff, Grande-Bretagne (3715): Direction du vent: 19.02.2018 09:00:00 - 25.02.2018 09:00:00 (GMT)Cardiff, Grande-Bretagne (3715): visibility: 19.02.2018 09:00:00 - 25.02.2018 09:00:00 (GMT)
Date & Time tt [°C] td [°C] ff [km/h] ff [knt] dd vv [km]
25.02.2018 09:00:00 0,0 -3,0 26 14 E 10
25.02.2018 08:00:00 -1,0 -3,0 34 18 ENE 10
25.02.2018 07:00:00 0,0 -3,0 29 16 ENE 10
25.02.2018 06:00:00 0,0 -2,0 26 14 E 10
25.02.2018 05:00:00 0,0 -2,0 26 14 E 10
25.02.2018 04:00:00 1,0 -1,0 26 14 E 10
25.02.2018 03:00:00 1,0 -1,0 28 15 E 10
25.02.2018 02:00:00 1,0 -1,0 28 15 ENE 10
25.02.2018 01:00:00 1,0 -1,0 31 17 ENE 10
25.02.2018 00:00:00 2,0 -2,0 31 17 ENE 10
24.02.2018 23:00:00 2,0 -2,0 28 15 E 10
24.02.2018 22:00:00 2,0 -3,0 24 13 E 10
24.02.2018 21:00:00 2,0 -3,0 24 13 E 10
24.02.2018 20:00:00 3,0 -3,0 24 13 E 10
24.02.2018 19:00:00 3,0 -4,0 24 13 E 10
24.02.2018 18:00:00 4,0 -3,0 24 13 ENE 10
24.02.2018 17:00:00 4,0 -2,0 24 13 ENE 10
24.02.2018 16:00:00 5,0 -3,0 28 15 E 10
24.02.2018 15:00:00 5,0 -2,0 35 19 ENE 10
24.02.2018 14:00:00 4,0 -2,0 31 17 ENE 10
24.02.2018 13:00:00 4,0 -2,0 29 16 ENE 10
24.02.2018 12:00:00 3,0 -3,0 28 15 ENE 10
24.02.2018 11:00:00 2,0 -3,0 31 17 ENE 10
24.02.2018 10:00:00 1,0 -3,0 31 17 ENE 10
24.02.2018 09:00:00 1,0 -3,0 28 15 ENE 10
24.02.2018 08:00:00 0,0 -4,0 24 13 ENE 10
24.02.2018 07:00:00 -1,0 -4,0 22 12 ENE 10
24.02.2018 06:00:00 1,0 -3,0 28 15 E 10
24.02.2018 05:00:00 1,0 -3,0 24 13 E 10
24.02.2018 04:00:00 1,0 -3,0 22 12 E 10
24.02.2018 03:00:00 1,0 -3,0 26 14 E 10
24.02.2018 02:00:00 1,0 -3,0 26 14 E 10
24.02.2018 01:00:00 1,0 -3,0 26 14 E 10
24.02.2018 00:00:00 1,0 -3,0 31 17 E 10
23.02.2018 23:00:00 1,0 -3,0 31 17 E 10
23.02.2018 22:00:00 1,0 -3,0 28 15 E 10
23.02.2018 21:00:00 2,0 -3,0 26 14 E 10
23.02.2018 20:00:00 2,0 -3,0 24 13 E 10
23.02.2018 19:00:00 3,0 -2,0 26 14 E 10
23.02.2018 18:00:00 3,0 -2,0 26 14 E 10
23.02.2018 17:00:00 4,0 -2,0 22 12 E 10
23.02.2018 16:00:00 5,0 -2,0 18 10 E 10
23.02.2018 15:00:00 5,0 -1,0 24 13 ESE 10
23.02.2018 14:00:00 4,0 -2,0 24 13 E 10
23.02.2018 13:00:00 4,0 -2,0 26 14 E 10
23.02.2018 12:00:00 3,0 -2,0 28 15 E 10
23.02.2018 11:00:00 2,0 -1,0 28 15 E 10
23.02.2018 10:00:00 2,0 -1,0 26 14 E 10
23.02.2018 09:00:00 1,0 -1,0 26 14 E 7
23.02.2018 08:00:00 0,0 -1,0 21 11 E 6
23.02.2018 07:00:00 -1,0 -2,0 21 11 E 4,7
23.02.2018 06:00:00 -1,0 -2,0 21 11 ENE 5
23.02.2018 05:00:00 -1,0 -2,0 21 11 ENE 7
23.02.2018 04:00:00 -1,0 -3,0 18 10 ENE 10
23.02.2018 03:00:00 0,0 -3,0 16 9 ENE 10
23.02.2018 02:00:00 0,0 -2,0 15 8 E 10
23.02.2018 01:00:00 0,0 -3,0 15 8 E 10
23.02.2018 00:00:00 1,0 -3,0 21 11 E 10
22.02.2018 23:00:00 0,0 -2,0 16 9 E 9
22.02.2018 22:00:00 0,0 -3,0 18 10 ENE 10
22.02.2018 21:00:00 1,0 -3,0 15 8 ENE 9
22.02.2018 20:00:00 1,0 -3,0 15 8 ENE 10
22.02.2018 19:00:00 2,0 -2,0 15 8 ENE 10
22.02.2018 18:00:00 2,0 -2,0 16 9 ENE 10
22.02.2018 17:00:00 3,0 -2,0 18 10 E 10
22.02.2018 16:00:00 4,0 -2,0 16 9 E 10
22.02.2018 15:00:00 4,0 -1,0 24 13 ENE 10
22.02.2018 14:00:00 4,0 -1,0 16 9 E 10
22.02.2018 13:00:00 6,0 0,0 18 10 E 10
22.02.2018 12:00:00 5,0 1,0 21 11 ESE 10
22.02.2018 11:00:00 4,0 2,0 18 10 E 10
22.02.2018 10:00:00 3,0 2,0 16 9 E 10
22.02.2018 09:00:00 3,0 1,0 22 12 E 10
22.02.2018 08:00:00 3,0 1,0 16 9 ENE 10
22.02.2018 07:00:00 2,0 -1,0 15 8 ENE 10
22.02.2018 06:00:00 2,0 -1,0 13 7 NE 10
22.02.2018 05:00:00 2,0 0,0 13 7 ENE 10
22.02.2018 04:00:00 3,0 1,0 16 9 ENE 10
22.02.2018 03:00:00 3,0 2,0 13 7 E 10
22.02.2018 02:00:00 2,0 1,0 9 5 ENE 10
22.02.2018 01:00:00 3,0 2,0 11 6 NE 10
22.02.2018 00:00:00 2,0 1,0 9 5 E 10
21.02.2018 23:00:00 3,0 1,0 15 8 E 10
21.02.2018 22:00:00 4,0 2,0 11 6 NE 10
21.02.2018 21:00:00 4,0 2,0 11 6 NE 10
21.02.2018 20:00:00 5,0 2,0 13 7 NE 10
21.02.2018 19:00:00 5,0 1,0 9 5 NE 10
21.02.2018 18:00:00 6,0 1,0 9 5 ENE 10
21.02.2018 17:00:00 7,0 2,0 13 7 NE 10
21.02.2018 16:00:00 7,0 2,0 16 9 ENE 10
21.02.2018 15:00:00 8,0 3,0 21 11 E 10
21.02.2018 14:00:00 8,0 3,0 13 7 E 10
21.02.2018 13:00:00 8,0 3,0 18 10 ENE 10
21.02.2018 12:00:00 7,0 4,0 18 10 ESE 10
21.02.2018 11:00:00 6,0 4,0 16 9 ESE 10
21.02.2018 10:00:00 6,0 4,0 13 7 ESE 10
21.02.2018 09:00:00 5,0 3,0 16 9 E 10
21.02.2018 08:00:00 6,0 3,0 15 8 ENE 10
21.02.2018 07:00:00 6,0 4,0 15 8 NE 10
21.02.2018 06:00:00 6,0 3,0 15 8 NE 10
21.02.2018 05:00:00 5,0 2,0 11 6 NNE 10
21.02.2018 04:00:00 4,0 1,0 11 6 NNW 10
21.02.2018 03:00:00 3,0 0,0 9 5 NNW 10
21.02.2018 02:00:00 5,0 1,0 11 6 NW 10
21.02.2018 01:00:00 4,0 1,0 9 5 NNW 10
21.02.2018 00:00:00 5,0 2,0 18 10 N 10
20.02.2018 23:00:00 6,0 2,0 16 9 N 10
20.02.2018 22:00:00 5,0 2,0 16 9 NNW 10
20.02.2018 21:00:00 5,0 1,0 18 10 NNW 10
20.02.2018 20:00:00 5,0 1,0 18 10 NNW 10
20.02.2018 19:00:00 6,0 1,0 9 5 NW 10
20.02.2018 18:00:00 7,0 1,0 13 7 NNW 10
20.02.2018 17:00:00 9,0 1,0 21 11 N 10
20.02.2018 16:00:00 10,0 1,0 16 9 NNW 10
20.02.2018 15:00:00 11,0 1,0 26 14 N 10
20.02.2018 14:00:00 10,0 1,0 26 14 N 10
20.02.2018 13:00:00 10,0 2,0 31 17 NNE 10
20.02.2018 12:00:00 9,0 3,0 28 15 N 10
20.02.2018 11:00:00 9,0 4,0 29 16 N 10
20.02.2018 10:00:00 8,0 4,0 21 11 NW 10
20.02.2018 09:00:00 7,0 4,0 13 7 NNW 10
20.02.2018 08:00:00 5,0 3,0 21 11 NNW 10
20.02.2018 07:00:00 6,0 4,0 9 5 NW 10
20.02.2018 06:00:00 6,0 5,0 9 5 WSW 10
20.02.2018 05:00:00 6,0 5,0 15 8 NNW 10
20.02.2018 04:00:00 7,0 6,0 8 4 WSW 10
20.02.2018 03:00:00 7,0 7,0 15 8 WNW 8
20.02.2018 02:00:00 7,0 7,0 18 10 WNW 9
20.02.2018 01:00:00 7,0 6,0 16 9 WNW 10
20.02.2018 00:00:00 7,0 7,0 18 10 NW 10
19.02.2018 23:00:00 8,0 7,0 18 10 NW 10
19.02.2018 22:00:00 9,0 8,0 16 9 NW 10
19.02.2018 21:00:00 9,0 8,0 24 13 NW 10
19.02.2018 20:00:00 9,0 9,0 21 11 WNW 10
19.02.2018 19:00:00 9,0 9,0 11 6 WNW 10
19.02.2018 18:00:00 10,0 9,0 11 6 WNW 10
19.02.2018 17:00:00 10,0 10,0 13 7 WNW 10
19.02.2018 16:00:00 10,0 9,0 15 8 W 10
19.02.2018 15:00:00 11,0 10,0 15 8 WNW 10
19.02.2018 14:00:00 11,0 10,0 21 11 NW 10
19.02.2018 13:00:00 11,0 10,0 21 11 WNW 10
19.02.2018 12:00:00 11,0 11,0 16 9 WSW 10
19.02.2018 11:00:00 9,0 9,0 21 11 WNW 6
19.02.2018 10:00:00 8,0 8,0 21 11 WNW 1,2
19.02.2018 09:00:00 8,0 8,0 21 11 WNW 0,6

tt = Température de l'air
td = dewpoint
ff = Vitesse du vent
dd = Direction du vent
vv = visibility

stations d'obs. à proximité